Terminal Aerodrome Forecast
Issued by NWS Green Bay, WI

Home | Current Version | Previous Version | Text Only | Print | Product List | Glossary Off
Versions: 1 2 3 4 5 6 7 8 9 10 11 12

000
FTUS43 KGRB 160520
TAFGRB
TAF
KGRB 160520Z 1606/1706 24005KT P6SM SCT050 BKN100
     FM160800 25005KT P6SM SCT100
     FM161600 24010G16KT P6SM SCT200
     FM162300 22006KT P6SM SKC
     FM170400 22006KT P6SM SKC WS008/24035KT=

USA.gov is the U.S. government's official web portal to all federal, state and local government web resources and services.